sensor_id;sensor_type;location;lat;lon;timestamp;P1;durP1;ratioP1;P2;durP2;ratioP2
28459;SDS011;32528;45.712;9.192;2023-03-13T00:01:56;20.27;;;7.18;;
28459;SDS011;32528;45.712;9.192;2023-03-13T00:03:57;20.45;;;7.28;;
28459;SDS011;32528;45.712;9.192;2023-03-13T00:05:58;18.67;;;7.25;;
28459;SDS011;32528;45.712;9.192;2023-03-13T00:07:59;21.25;;;6.28;;
28459;SDS011;32528;45.712;9.192;2023-03-13T00:10:00;20.70;;;9.77;;
28459;SDS011;32528;45.712;9.192;2023-03-13T00:12:00;14.43;;;7.60;;
28459;SDS011;32528;45.712;9.192;2023-03-13T00:14:01;15.27;;;8.50;;
28459;SDS011;32528;45.712;9.192;2023-03-13T00:16:07;16.20;;;8.37;;
28459;SDS011;32528;45.712;9.192;2023-03-13T00:20:10;13.23;;;6.95;;
28459;SDS011;32528;45.712;9.192;2023-03-13T00:22:11;16.73;;;8.00;;
28459;SDS011;32528;45.712;9.192;2023-03-13T00:26:14;10.90;;;6.57;;
28459;SDS011;32528;45.712;9.192;2023-03-13T00:28:16;13.95;;;6.60;;
28459;SDS011;32528;45.712;9.192;2023-03-13T00:30:17;20.63;;;6.28;;
28459;SDS011;32528;45.712;9.192;2023-03-13T00:32:17;13.80;;;5.68;;
28459;SDS011;32528;45.712;9.192;2023-03-13T00:34:18;16.52;;;7.93;;
28459;SDS011;32528;45.712;9.192;2023-03-13T00:36:23;12.45;;;7.30;;
28459;SDS011;32528;45.712;9.192;2023-03-13T00:38:26;16.92;;;7.47;;
28459;SDS011;32528;45.712;9.192;2023-03-13T00:40:28;16.80;;;7.28;;
28459;SDS011;32528;45.712;9.192;2023-03-13T00:42:29;13.27;;;6.60;;
28459;SDS011;32528;45.712;9.192;2023-03-13T00:44:30;14.15;;;7.00;;
28459;SDS011;32528;45.712;9.192;2023-03-13T00:48:31;14.23;;;6.30;;
28459;SDS011;32528;45.712;9.192;2023-03-13T00:50:33;25.92;;;7.47;;
28459;SDS011;32528;45.712;9.192;2023-03-13T00:52:34;16.67;;;6.80;;
28459;SDS011;32528;45.712;9.192;2023-03-13T00:54:35;13.90;;;7.05;;
28459;SDS011;32528;45.712;9.192;2023-03-13T00:56:35;12.20;;;5.78;;
28459;SDS011;32528;45.712;9.192;2023-03-13T01:00:38;12.27;;;5.93;;
28459;SDS011;32528;45.712;9.192;2023-03-13T01:02:42;13.85;;;6.55;;
28459;SDS011;32528;45.712;9.192;2023-03-13T01:04:43;13.38;;;6.03;;
28459;SDS011;32528;45.712;9.192;2023-03-13T01:06:44;16.92;;;6.63;;
28459;SDS011;32528;45.712;9.192;2023-03-13T01:08:44;12.98;;;6.57;;
28459;SDS011;32528;45.712;9.192;2023-03-13T01:10:45;17.65;;;7.03;;
28459;SDS011;32528;45.712;9.192;2023-03-13T01:12:46;12.00;;;6.57;;
28459;SDS011;32528;45.712;9.192;2023-03-13T01:14:48;11.45;;;6.18;;
28459;SDS011;32528;45.712;9.192;2023-03-13T01:16:49;13.68;;;5.93;;
28459;SDS011;32528;45.712;9.192;2023-03-13T01:18:54;17.33;;;7.38;;
28459;SDS011;32528;45.712;9.192;2023-03-13T01:20:58;15.35;;;6.63;;
28459;SDS011;32528;45.712;9.192;2023-03-13T01:22:58;16.42;;;7.53;;
28459;SDS011;32528;45.712;9.192;2023-03-13T01:24:59;20.45;;;7.05;;
28459;SDS011;32528;45.712;9.192;2023-03-13T01:27:00;14.45;;;6.05;;
28459;SDS011;32528;45.712;9.192;2023-03-13T01:29:01;17.17;;;6.00;;
28459;SDS011;32528;45.712;9.192;2023-03-13T01:31:12;14.20;;;6.38;;
28459;SDS011;32528;45.712;9.192;2023-03-13T01:33:15;16.75;;;6.75;;
28459;SDS011;32528;45.712;9.192;2023-03-13T01:35:16;16.45;;;6.75;;
28459;SDS011;32528;45.712;9.192;2023-03-13T01:37:18;15.40;;;6.15;;
28459;SDS011;32528;45.712;9.192;2023-03-13T01:39:19;20.30;;;6.07;;
28459;SDS011;32528;45.712;9.192;2023-03-13T01:41:20;13.30;;;6.15;;
28459;SDS011;32528;45.712;9.192;2023-03-13T01:43:23;21.20;;;6.90;;
28459;SDS011;32528;45.712;9.192;2023-03-13T01:47:55;10.52;;;6.20;;
28459;SDS011;32528;45.712;9.192;2023-03-13T01:50:12;13.45;;;6.63;;
28459;SDS011;32528;45.712;9.192;2023-03-13T01:52:25;10.90;;;5.57;;
28459;SDS011;32528;45.712;9.192;2023-03-13T01:56:59;10.45;;;5.38;;
28459;SDS011;32528;45.712;9.192;2023-03-13T01:59:06;17.02;;;5.50;;
28459;SDS011;32528;45.712;9.192;2023-03-13T02:01:09;16.00;;;5.60;;
28459;SDS011;32528;45.712;9.192;2023-03-13T02:03:13;17.80;;;6.25;;
28459;SDS011;32528;45.712;9.192;2023-03-13T02:05:19;16.77;;;5.68;;
28459;SDS011;32528;45.712;9.192;2023-03-13T02:07:23;23.23;;;7.20;;
28459;SDS011;32528;45.712;9.192;2023-03-13T02:09:29;12.55;;;6.28;;
28459;SDS011;32528;45.712;9.192;2023-03-13T02:11:51;11.25;;;6.25;;
28459;SDS011;32528;45.712;9.192;2023-03-13T02:18:00;13.88;;;5.18;;
28459;SDS011;32528;45.712;9.192;2023-03-13T02:20:01;17.50;;;7.90;;
28459;SDS011;32528;45.712;9.192;2023-03-13T02:24:14;14.05;;;6.35;;
28459;SDS011;32528;45.712;9.192;2023-03-13T02:26:37;12.75;;;6.10;;
28459;SDS011;32528;45.712;9.192;2023-03-13T02:28:38;14.70;;;6.72;;
28459;SDS011;32528;45.712;9.192;2023-03-13T02:30:43;16.02;;;7.20;;
28459;SDS011;32528;45.712;9.192;2023-03-13T02:32:45;12.70;;;6.38;;
28459;SDS011;32528;45.712;9.192;2023-03-13T02:34:46;12.38;;;6.60;;
28459;SDS011;32528;45.712;9.192;2023-03-13T02:36:50;11.40;;;6.40;;
28459;SDS011;32528;45.712;9.192;2023-03-13T02:38:55;11.60;;;5.82;;
28459;SDS011;32528;45.712;9.192;2023-03-13T02:41:02;13.77;;;5.70;;
28459;SDS011;32528;45.712;9.192;2023-03-13T02:43:06;13.82;;;6.85;;
28459;SDS011;32528;45.712;9.192;2023-03-13T02:47:20;9.13;;;5.32;;
28459;SDS011;32528;45.712;9.192;2023-03-13T02:49:24;11.80;;;5.90;;
28459;SDS011;32528;45.712;9.192;2023-03-13T02:51:29;14.98;;;4.75;;
28459;SDS011;32528;45.712;9.192;2023-03-13T02:53:37;14.75;;;6.78;;
28459;SDS011;32528;45.712;9.192;2023-03-13T02:55:39;12.13;;;6.13;;
28459;SDS011;32528;45.712;9.192;2023-03-13T02:59:42;21.83;;;6.15;;
28459;SDS011;32528;45.712;9.192;2023-03-13T03:01:43;16.88;;;6.13;;
28459;SDS011;32528;45.712;9.192;2023-03-13T03:03:44;12.57;;;5.88;;
28459;SDS011;32528;45.712;9.192;2023-03-13T03:05:45;11.10;;;5.85;;
28459;SDS011;32528;45.712;9.192;2023-03-13T03:07:46;14.55;;;6.43;;
28459;SDS011;32528;45.712;9.192;2023-03-13T03:09:48;20.42;;;5.57;;
28459;SDS011;32528;45.712;9.192;2023-03-13T03:11:52;21.45;;;6.82;;
28459;SDS011;32528;45.712;9.192;2023-03-13T03:15:55;15.90;;;7.13;;
28459;SDS011;32528;45.712;9.192;2023-03-13T03:19:56;17.45;;;5.65;;
28459;SDS011;32528;45.712;9.192;2023-03-13T03:21:57;11.45;;;6.25;;
28459;SDS011;32528;45.712;9.192;2023-03-13T03:23:58;17.35;;;6.22;;
28459;SDS011;32528;45.712;9.192;2023-03-13T03:25:59;15.43;;;6.80;;
28459;SDS011;32528;45.712;9.192;2023-03-13T03:28:01;18.35;;;6.63;;
28459;SDS011;32528;45.712;9.192;2023-03-13T03:30:05;16.23;;;5.80;;
28459;SDS011;32528;45.712;9.192;2023-03-13T03:32:08;11.35;;;5.25;;
28459;SDS011;32528;45.712;9.192;2023-03-13T03:34:09;16.20;;;6.82;;
28459;SDS011;32528;45.712;9.192;2023-03-13T03:36:10;16.73;;;6.07;;
28459;SDS011;32528;45.712;9.192;2023-03-13T03:40:14;13.10;;;5.47;;
28459;SDS011;32528;45.712;9.192;2023-03-13T03:42:16;14.07;;;7.37;;
28459;SDS011;32528;45.712;9.192;2023-03-13T03:44:17;12.77;;;5.70;;
28459;SDS011;32528;45.712;9.192;2023-03-13T03:46:26;12.18;;;5.30;;
28459;SDS011;32528;45.712;9.192;2023-03-13T03:48:28;14.63;;;5.95;;
28459;SDS011;32528;45.712;9.192;2023-03-13T03:52:33;14.57;;;5.45;;
28459;SDS011;32528;45.712;9.192;2023-03-13T03:54:34;18.02;;;5.13;;
28459;SDS011;32528;45.712;9.192;2023-03-13T03:56:35;12.77;;;5.35;;
28459;SDS011;32528;45.712;9.192;2023-03-13T03:58:36;9.15;;;4.60;;
28459;SDS011;32528;45.712;9.192;2023-03-13T04:00:46;8.75;;;4.15;;
28459;SDS011;32528;45.712;9.192;2023-03-13T04:02:47;29.08;;;5.53;;
28459;SDS011;32528;45.712;9.192;2023-03-13T04:04:48;14.80;;;5.70;;
28459;SDS011;32528;45.712;9.192;2023-03-13T04:07:00;16.40;;;4.70;;
28459;SDS011;32528;45.712;9.192;2023-03-13T04:09:02;10.02;;;5.55;;
28459;SDS011;32528;45.712;9.192;2023-03-13T04:11:05;15.85;;;5.47;;
28459;SDS011;32528;45.712;9.192;2023-03-13T04:13:10;15.90;;;5.55;;
28459;SDS011;32528;45.712;9.192;2023-03-13T04:15:11;12.90;;;4.47;;
28459;SDS011;32528;45.712;9.192;2023-03-13T04:17:12;14.50;;;5.35;;
28459;SDS011;32528;45.712;9.192;2023-03-13T04:19:14;11.35;;;5.07;;
28459;SDS011;32528;45.712;9.192;2023-03-13T04:21:16;12.45;;;5.13;;
28459;SDS011;32528;45.712;9.192;2023-03-13T04:23:22;14.77;;;3.90;;
28459;SDS011;32528;45.712;9.192;2023-03-13T04:25:24;9.85;;;5.35;;
28459;SDS011;32528;45.712;9.192;2023-03-13T04:27:28;13.90;;;5.32;;
28459;SDS011;32528;45.712;9.192;2023-03-13T04:29:29;12.32;;;5.32;;
28459;SDS011;32528;45.712;9.192;2023-03-13T04:31:45;11.02;;;5.43;;
28459;SDS011;32528;45.712;9.192;2023-03-13T04:34:08;18.85;;;4.75;;
28459;SDS011;32528;45.712;9.192;2023-03-13T04:36:32;10.02;;;4.65;;
28459;SDS011;32528;45.712;9.192;2023-03-13T04:38:51;16.20;;;5.03;;
28459;SDS011;32528;45.712;9.192;2023-03-13T04:41:24;16.42;;;4.78;;
28459;SDS011;32528;45.712;9.192;2023-03-13T04:43:43;13.93;;;4.43;;
28459;SDS011;32528;45.712;9.192;2023-03-13T04:46:03;11.48;;;4.65;;
28459;SDS011;32528;45.712;9.192;2023-03-13T04:48:10;17.60;;;4.65;;
28459;SDS011;32528;45.712;9.192;2023-03-13T04:50:25;28.38;;;6.03;;
28459;SDS011;32528;45.712;9.192;2023-03-13T04:52:39;16.30;;;4.75;;
28459;SDS011;32528;45.712;9.192;2023-03-13T04:54:47;25.30;;;5.35;;
28459;SDS011;32528;45.712;9.192;2023-03-13T04:57:16;17.23;;;5.78;;
28459;SDS011;32528;45.712;9.192;2023-03-13T04:59:29;13.55;;;4.72;;
28459;SDS011;32528;45.712;9.192;2023-03-13T05:01:48;18.67;;;5.72;;
28459;SDS011;32528;45.712;9.192;2023-03-13T05:04:08;12.35;;;5.00;;
28459;SDS011;32528;45.712;9.192;2023-03-13T05:06:29;17.20;;;4.60;;
28459;SDS011;32528;45.712;9.192;2023-03-13T05:08:51;15.77;;;4.72;;
28459;SDS011;32528;45.712;9.192;2023-03-13T05:11:12;15.02;;;4.25;;
28459;SDS011;32528;45.712;9.192;2023-03-13T05:13:28;16.52;;;4.70;;
28459;SDS011;32528;45.712;9.192;2023-03-13T05:15:51;19.50;;;4.32;;
28459;SDS011;32528;45.712;9.192;2023-03-13T05:18:14;10.68;;;4.53;;
28459;SDS011;32528;45.712;9.192;2023-03-13T05:20:22;10.57;;;4.45;;
28459;SDS011;32528;45.712;9.192;2023-03-13T05:22:40;13.75;;;4.93;;
28459;SDS011;32528;45.712;9.192;2023-03-13T05:25:04;13.27;;;4.63;;
28459;SDS011;32528;45.712;9.192;2023-03-13T05:27:23;13.90;;;4.07;;
28459;SDS011;32528;45.712;9.192;2023-03-13T05:31:40;10.40;;;5.30;;
28459;SDS011;32528;45.712;9.192;2023-03-13T05:33:50;12.07;;;4.78;;
28459;SDS011;32528;45.712;9.192;2023-03-13T05:35:56;17.65;;;5.10;;
28459;SDS011;32528;45.712;9.192;2023-03-13T05:38:16;11.88;;;5.00;;
28459;SDS011;32528;45.712;9.192;2023-03-13T05:40:35;15.07;;;4.90;;
28459;SDS011;32528;45.712;9.192;2023-03-13T05:42:36;18.52;;;5.15;;
28459;SDS011;32528;45.712;9.192;2023-03-13T05:44:54;8.45;;;3.95;;
28459;SDS011;32528;45.712;9.192;2023-03-13T05:47:30;10.65;;;5.05;;
28459;SDS011;32528;45.712;9.192;2023-03-13T05:49:54;18.35;;;6.38;;
28459;SDS011;32528;45.712;9.192;2023-03-13T05:52:27;12.40;;;4.60;;
28459;SDS011;32528;45.712;9.192;2023-03-13T05:54:37;12.68;;;4.93;;
28459;SDS011;32528;45.712;9.192;2023-03-13T05:56:56;10.32;;;4.63;;
28459;SDS011;32528;45.712;9.192;2023-03-13T05:59:15;10.05;;;4.65;;
28459;SDS011;32528;45.712;9.192;2023-03-13T06:01:42;8.43;;;4.03;;
28459;SDS011;32528;45.712;9.192;2023-03-13T06:03:54;10.73;;;5.07;;
28459;SDS011;32528;45.712;9.192;2023-03-13T06:05:58;10.40;;;4.68;;
28459;SDS011;32528;45.712;9.192;2023-03-13T06:08:13;14.10;;;5.10;;
28459;SDS011;32528;45.712;9.192;2023-03-13T06:10:14;9.90;;;4.65;;
28459;SDS011;32528;45.712;9.192;2023-03-13T06:14:16;12.60;;;4.32;;
28459;SDS011;32528;45.712;9.192;2023-03-13T06:24:49;10.57;;;5.68;;
28459;SDS011;32528;45.712;9.192;2023-03-13T06:49:03;29.02;;;7.65;;
28459;SDS011;32528;45.712;9.192;2023-03-13T06:51:08;27.42;;;9.82;;
28459;SDS011;32528;45.712;9.192;2023-03-13T06:53:17;32.78;;;12.65;;
28459;SDS011;32528;45.712;9.192;2023-03-13T06:55:19;25.75;;;11.65;;
28459;SDS011;32528;45.712;9.192;2023-03-13T06:57:20;31.52;;;11.25;;
28459;SDS011;32528;45.712;9.192;2023-03-13T06:59:21;37.33;;;11.90;;
28459;SDS011;32528;45.712;9.192;2023-03-13T07:01:22;31.50;;;11.93;;
28459;SDS011;32528;45.712;9.192;2023-03-13T07:03:23;24.70;;;11.43;;
28459;SDS011;32528;45.712;9.192;2023-03-13T07:05:24;28.58;;;10.77;;
28459;SDS011;32528;45.712;9.192;2023-03-13T07:07:25;26.50;;;8.18;;
28459;SDS011;32528;45.712;9.192;2023-03-13T07:09:26;21.67;;;7.75;;
28459;SDS011;32528;45.712;9.192;2023-03-13T07:11:27;14.35;;;7.70;;
28459;SDS011;32528;45.712;9.192;2023-03-13T07:13:27;21.02;;;9.35;;
28459;SDS011;32528;45.712;9.192;2023-03-13T07:15:28;30.20;;;8.95;;
28459;SDS011;32528;45.712;9.192;2023-03-13T07:17:29;24.10;;;9.63;;
28459;SDS011;32528;45.712;9.192;2023-03-13T07:19:30;20.38;;;9.23;;
28459;SDS011;32528;45.712;9.192;2023-03-13T07:21:31;19.15;;;7.47;;
28459;SDS011;32528;45.712;9.192;2023-03-13T07:23:33;25.30;;;6.93;;
28459;SDS011;32528;45.712;9.192;2023-03-13T07:27:35;12.20;;;5.25;;
28459;SDS011;32528;45.712;9.192;2023-03-13T07:29:37;25.42;;;6.35;;
28459;SDS011;32528;45.712;9.192;2023-03-13T07:31:38;10.25;;;3.90;;
28459;SDS011;32528;45.712;9.192;2023-03-13T07:33:39;16.30;;;3.97;;
28459;SDS011;32528;45.712;9.192;2023-03-13T07:35:40;14.27;;;4.28;;
28459;SDS011;32528;45.712;9.192;2023-03-13T07:37:46;11.77;;;4.65;;
28459;SDS011;32528;45.712;9.192;2023-03-13T07:39:46;14.70;;;6.20;;
28459;SDS011;32528;45.712;9.192;2023-03-13T07:41:47;12.30;;;3.38;;
28459;SDS011;32528;45.712;9.192;2023-03-13T07:43:50;13.05;;;4.50;;
28459;SDS011;32528;45.712;9.192;2023-03-13T07:45:56;7.30;;;2.83;;
28459;SDS011;32528;45.712;9.192;2023-03-13T07:50:04;17.58;;;5.07;;
28459;SDS011;32528;45.712;9.192;2023-03-13T07:52:05;14.13;;;5.88;;
28459;SDS011;32528;45.712;9.192;2023-03-13T07:54:06;19.40;;;7.50;;
28459;SDS011;32528;45.712;9.192;2023-03-13T07:56:09;17.65;;;7.43;;
28459;SDS011;32528;45.712;9.192;2023-03-13T07:58:11;22.40;;;6.30;;
28459;SDS011;32528;45.712;9.192;2023-03-13T08:00:12;22.00;;;5.87;;
28459;SDS011;32528;45.712;9.192;2023-03-13T08:02:15;21.50;;;5.53;;
28459;SDS011;32528;45.712;9.192;2023-03-13T08:04:17;16.48;;;5.72;;
28459;SDS011;32528;45.712;9.192;2023-03-13T08:06:22;15.47;;;4.90;;
28459;SDS011;32528;45.712;9.192;2023-03-13T08:08:25;17.17;;;5.53;;
28459;SDS011;32528;45.712;9.192;2023-03-13T08:10:26;16.38;;;5.65;;
28459;SDS011;32528;45.712;9.192;2023-03-13T08:12:27;16.20;;;5.90;;
28459;SDS011;32528;45.712;9.192;2023-03-13T08:14:27;19.30;;;5.90;;
28459;SDS011;32528;45.712;9.192;2023-03-13T08:16:29;16.63;;;4.57;;
28459;SDS011;32528;45.712;9.192;2023-03-13T08:18:33;26.10;;;5.35;;
28459;SDS011;32528;45.712;9.192;2023-03-13T08:20:35;16.92;;;5.63;;
28459;SDS011;32528;45.712;9.192;2023-03-13T08:22:35;15.88;;;4.35;;
28459;SDS011;32528;45.712;9.192;2023-03-13T08:24:37;20.02;;;4.25;;
28459;SDS011;32528;45.712;9.192;2023-03-13T08:26:38;15.15;;;4.40;;
28459;SDS011;32528;45.712;9.192;2023-03-13T08:28:41;13.00;;;4.27;;
28459;SDS011;32528;45.712;9.192;2023-03-13T08:30:43;11.23;;;4.35;;
28459;SDS011;32528;45.712;9.192;2023-03-13T08:32:43;21.97;;;4.70;;
28459;SDS011;32528;45.712;9.192;2023-03-13T08:34:44;13.60;;;4.35;;
28459;SDS011;32528;45.712;9.192;2023-03-13T08:36:45;16.42;;;4.35;;
28459;SDS011;32528;45.712;9.192;2023-03-13T08:38:46;17.85;;;3.60;;
28459;SDS011;32528;45.712;9.192;2023-03-13T08:40:47;17.50;;;4.07;;
28459;SDS011;32528;45.712;9.192;2023-03-13T08:42:48;13.93;;;3.80;;
28459;SDS011;32528;45.712;9.192;2023-03-13T08:44:49;12.93;;;3.08;;
28459;SDS011;32528;45.712;9.192;2023-03-13T08:46:50;17.17;;;3.97;;
28459;SDS011;32528;45.712;9.192;2023-03-13T08:48:51;9.88;;;3.72;;
28459;SDS011;32528;45.712;9.192;2023-03-13T08:51:00;22.73;;;4.20;;
28459;SDS011;32528;45.712;9.192;2023-03-13T08:53:05;13.18;;;3.80;;
28459;SDS011;32528;45.712;9.192;2023-03-13T08:55:06;12.37;;;4.20;;
28459;SDS011;32528;45.712;9.192;2023-03-13T08:57:07;13.50;;;4.53;;
28459;SDS011;32528;45.712;9.192;2023-03-13T08:59:08;16.50;;;4.47;;
28459;SDS011;32528;45.712;9.192;2023-03-13T09:01:10;15.27;;;4.18;;
28459;SDS011;32528;45.712;9.192;2023-03-13T09:03:14;14.93;;;3.60;;
28459;SDS011;32528;45.712;9.192;2023-03-13T09:05:16;15.10;;;4.00;;
28459;SDS011;32528;45.712;9.192;2023-03-13T09:07:17;14.48;;;3.22;;
28459;SDS011;32528;45.712;9.192;2023-03-13T09:09:18;14.88;;;3.53;;
28459;SDS011;32528;45.712;9.192;2023-03-13T09:11:19;12.93;;;3.40;;
28459;SDS011;32528;45.712;9.192;2023-03-13T09:13:21;17.13;;;4.38;;
28459;SDS011;32528;45.712;9.192;2023-03-13T09:15:22;11.87;;;3.90;;
28459;SDS011;32528;45.712;9.192;2023-03-13T09:17:22;18.52;;;3.42;;
28459;SDS011;32528;45.712;9.192;2023-03-13T09:19:23;12.00;;;3.70;;
28459;SDS011;32528;45.712;9.192;2023-03-13T09:21:25;14.20;;;4.75;;
28459;SDS011;32528;45.712;9.192;2023-03-13T09:23:28;6.85;;;3.30;;
28459;SDS011;32528;45.712;9.192;2023-03-13T09:25:29;13.00;;;3.65;;
28459;SDS011;32528;45.712;9.192;2023-03-13T09:27:30;12.97;;;3.90;;
28459;SDS011;32528;45.712;9.192;2023-03-13T09:29:31;13.63;;;3.78;;
28459;SDS011;32528;45.712;9.192;2023-03-13T09:31:32;13.90;;;4.38;;
28459;SDS011;32528;45.712;9.192;2023-03-13T09:33:33;34.63;;;4.22;;
28459;SDS011;32528;45.712;9.192;2023-03-13T09:35:34;16.23;;;4.67;;
28459;SDS011;32528;45.712;9.192;2023-03-13T09:37:37;18.08;;;4.15;;
28459;SDS011;32528;45.712;9.192;2023-03-13T09:39:38;10.40;;;4.07;;
28459;SDS011;32528;45.712;9.192;2023-03-13T09:43:47;15.07;;;3.88;;
28459;SDS011;32528;45.712;9.192;2023-03-13T09:45:53;11.37;;;4.17;;
28459;SDS011;32528;45.712;9.192;2023-03-13T09:48:01;10.50;;;4.13;;
28459;SDS011;32528;45.712;9.192;2023-03-13T09:50:05;16.48;;;5.00;;
28459;SDS011;32528;45.712;9.192;2023-03-13T09:52:27;12.27;;;4.17;;
28459;SDS011;32528;45.712;9.192;2023-03-13T09:54:35;16.50;;;4.35;;
28459;SDS011;32528;45.712;9.192;2023-03-13T09:56:53;11.45;;;3.70;;
28459;SDS011;32528;45.712;9.192;2023-03-13T09:58:59;13.60;;;4.68;;
28459;SDS011;32528;45.712;9.192;2023-03-13T10:01:05;13.82;;;5.50;;
28459;SDS011;32528;45.712;9.192;2023-03-13T10:05:15;15.15;;;4.75;;
28459;SDS011;32528;45.712;9.192;2023-03-13T10:07:22;11.82;;;5.05;;
28459;SDS011;32528;45.712;9.192;2023-03-13T10:09:32;21.60;;;4.68;;
28459;SDS011;32528;45.712;9.192;2023-03-13T10:11:41;30.48;;;4.82;;
28459;SDS011;32528;45.712;9.192;2023-03-13T10:15:57;10.82;;;4.03;;
28459;SDS011;32528;45.712;9.192;2023-03-13T10:18:17;11.65;;;4.47;;
28459;SDS011;32528;45.712;9.192;2023-03-13T10:22:24;12.25;;;4.75;;
28459;SDS011;32528;45.712;9.192;2023-03-13T10:24:31;10.90;;;3.60;;
28459;SDS011;32528;45.712;9.192;2023-03-13T10:26:39;12.98;;;3.80;;
28459;SDS011;32528;45.712;9.192;2023-03-13T10:28:40;15.32;;;4.28;;
28459;SDS011;32528;45.712;9.192;2023-03-13T10:35:21;14.10;;;4.43;;
28459;SDS011;32528;45.712;9.192;2023-03-13T10:37:27;17.95;;;5.22;;
28459;SDS011;32528;45.712;9.192;2023-03-13T10:39:29;15.02;;;4.00;;
28459;SDS011;32528;45.712;9.192;2023-03-13T10:41:35;10.77;;;4.00;;
28459;SDS011;32528;45.712;9.192;2023-03-13T10:43:38;13.88;;;4.65;;
28459;SDS011;32528;45.712;9.192;2023-03-13T10:45:52;16.83;;;5.07;;
28459;SDS011;32528;45.712;9.192;2023-03-13T10:47:59;15.27;;;5.65;;
28459;SDS011;32528;45.712;9.192;2023-03-13T10:50:01;14.35;;;4.22;;
28459;SDS011;32528;45.712;9.192;2023-03-13T10:52:03;14.45;;;4.60;;
28459;SDS011;32528;45.712;9.192;2023-03-13T10:54:13;17.85;;;5.47;;
28459;SDS011;32528;45.712;9.192;2023-03-13T10:56:28;13.00;;;5.45;;
28459;SDS011;32528;45.712;9.192;2023-03-13T10:58:33;11.40;;;5.32;;
28459;SDS011;32528;45.712;9.192;2023-03-13T11:00:45;25.20;;;6.55;;
28459;SDS011;32528;45.712;9.192;2023-03-13T11:02:46;14.40;;;5.82;;
28459;SDS011;32528;45.712;9.192;2023-03-13T11:04:46;23.07;;;6.37;;
28459;SDS011;32528;45.712;9.192;2023-03-13T11:06:52;24.00;;;6.35;;
28459;SDS011;32528;45.712;9.192;2023-03-13T11:09:09;19.63;;;6.75;;
28459;SDS011;32528;45.712;9.192;2023-03-13T11:11:18;13.45;;;5.78;;
28459;SDS011;32528;45.712;9.192;2023-03-13T11:13:52;16.80;;;5.90;;
28459;SDS011;32528;45.712;9.192;2023-03-13T11:15:48;15.68;;;6.38;;
28459;SDS011;32528;45.712;9.192;2023-03-13T11:18:01;17.35;;;6.60;;
28459;SDS011;32528;45.712;9.192;2023-03-13T11:20:35;17.13;;;6.68;;
28459;SDS011;32528;45.712;9.192;2023-03-13T11:27:09;18.52;;;6.90;;
28459;SDS011;32528;45.712;9.192;2023-03-13T11:29:27;19.55;;;6.13;;
28459;SDS011;32528;45.712;9.192;2023-03-13T11:31:56;18.87;;;5.87;;
28459;SDS011;32528;45.712;9.192;2023-03-13T11:36:21;14.60;;;6.78;;
28459;SDS011;32528;45.712;9.192;2023-03-13T11:38:35;17.67;;;6.95;;
28459;SDS011;32528;45.712;9.192;2023-03-13T11:45:52;21.42;;;6.93;;
28459;SDS011;32528;45.712;9.192;2023-03-13T11:47:56;17.17;;;5.85;;
28459;SDS011;32528;45.712;9.192;2023-03-13T11:55:17;16.88;;;6.20;;
28459;SDS011;32528;45.712;9.192;2023-03-13T11:57:29;18.20;;;5.78;;
28459;SDS011;32528;45.712;9.192;2023-03-13T12:01:58;16.73;;;6.72;;
28459;SDS011;32528;45.712;9.192;2023-03-13T12:06:12;17.98;;;7.38;;
28459;SDS011;32528;45.712;9.192;2023-03-13T12:08:35;21.00;;;6.60;;
28459;SDS011;32528;45.712;9.192;2023-03-13T12:10:46;16.15;;;6.97;;
28459;SDS011;32528;45.712;9.192;2023-03-13T12:15:25;15.50;;;6.82;;
28459;SDS011;32528;45.712;9.192;2023-03-13T12:17:40;13.83;;;6.20;;
28459;SDS011;32528;45.712;9.192;2023-03-13T12:19:51;16.45;;;6.75;;
28459;SDS011;32528;45.712;9.192;2023-03-13T12:21:59;23.50;;;6.73;;
28459;SDS011;32528;45.712;9.192;2023-03-13T12:33:18;13.95;;;6.78;;
28459;SDS011;32528;45.712;9.192;2023-03-13T12:35:27;15.35;;;6.15;;
28459;SDS011;32528;45.712;9.192;2023-03-13T12:39:53;22.05;;;7.20;;
28459;SDS011;32528;45.712;9.192;2023-03-13T12:44:21;15.38;;;6.22;;
28459;SDS011;32528;45.712;9.192;2023-03-13T12:46:39;17.48;;;6.85;;
28459;SDS011;32528;45.712;9.192;2023-03-13T12:48:53;16.17;;;6.70;;
28459;SDS011;32528;45.712;9.192;2023-03-13T12:51:10;13.38;;;6.88;;
28459;SDS011;32528;45.712;9.192;2023-03-13T12:58:03;17.25;;;7.22;;
28459;SDS011;32528;45.712;9.192;2023-03-13T13:00:20;17.67;;;6.45;;
28459;SDS011;32528;45.712;9.192;2023-03-13T13:02:27;19.42;;;7.25;;
28459;SDS011;32528;45.712;9.192;2023-03-13T13:04:30;19.25;;;6.55;;
28459;SDS011;32528;45.712;9.192;2023-03-13T13:09:18;22.83;;;6.70;;
28459;SDS011;32528;45.712;9.192;2023-03-13T13:13:42;16.08;;;7.38;;
28459;SDS011;32528;45.712;9.192;2023-03-13T13:15:45;18.53;;;6.77;;
28459;SDS011;32528;45.712;9.192;2023-03-13T13:17:49;16.95;;;7.40;;
28459;SDS011;32528;45.712;9.192;2023-03-13T13:19:55;16.17;;;7.32;;
28459;SDS011;32528;45.712;9.192;2023-03-13T13:24:38;22.08;;;7.57;;
28459;SDS011;32528;45.712;9.192;2023-03-13T13:26:44;15.07;;;6.73;;
28459;SDS011;32528;45.712;9.192;2023-03-13T13:28:47;18.20;;;6.40;;
28459;SDS011;32528;45.712;9.192;2023-03-13T13:30:48;19.80;;;6.40;;
28459;SDS011;32528;45.712;9.192;2023-03-13T13:32:51;19.37;;;7.23;;
28459;SDS011;32528;45.712;9.192;2023-03-13T13:34:54;14.20;;;6.47;;
28459;SDS011;32528;45.712;9.192;2023-03-13T13:39:25;18.88;;;7.30;;
28459;SDS011;32528;45.712;9.192;2023-03-13T13:41:39;21.92;;;7.53;;
28459;SDS011;32528;45.712;9.192;2023-03-13T13:43:40;24.58;;;7.88;;
28459;SDS011;32528;45.712;9.192;2023-03-13T13:45:56;20.35;;;7.35;;
28459;SDS011;32528;45.712;9.192;2023-03-13T13:48:39;19.88;;;7.00;;
28459;SDS011;32528;45.712;9.192;2023-03-13T13:50:36;18.73;;;7.15;;
28459;SDS011;32528;45.712;9.192;2023-03-13T13:52:38;21.95;;;8.07;;
28459;SDS011;32528;45.712;9.192;2023-03-13T13:56:42;17.67;;;7.63;;
28459;SDS011;32528;45.712;9.192;2023-03-13T13:58:46;15.65;;;7.95;;
28459;SDS011;32528;45.712;9.192;2023-03-13T14:00:51;17.38;;;7.78;;
28459;SDS011;32528;45.712;9.192;2023-03-13T14:02:59;23.52;;;7.65;;
28459;SDS011;32528;45.712;9.192;2023-03-13T14:05:01;16.30;;;7.07;;
28459;SDS011;32528;45.712;9.192;2023-03-13T14:07:03;19.13;;;6.95;;
28459;SDS011;32528;45.712;9.192;2023-03-13T14:09:30;21.40;;;7.53;;
28459;SDS011;32528;45.712;9.192;2023-03-13T14:11:47;21.15;;;7.68;;
28459;SDS011;32528;45.712;9.192;2023-03-13T14:18:24;21.30;;;10.00;;
28459;SDS011;32528;45.712;9.192;2023-03-13T14:20:28;24.75;;;9.35;;
28459;SDS011;32528;45.712;9.192;2023-03-13T14:22:43;25.10;;;8.73;;
28459;SDS011;32528;45.712;9.192;2023-03-13T14:24:55;33.90;;;9.35;;
28459;SDS011;32528;45.712;9.192;2023-03-13T14:26:57;20.92;;;7.47;;
28459;SDS011;32528;45.712;9.192;2023-03-13T14:29:00;21.35;;;8.50;;
28459;SDS011;32528;45.712;9.192;2023-03-13T14:31:01;18.05;;;7.93;;
28459;SDS011;32528;45.712;9.192;2023-03-13T14:33:02;17.52;;;7.35;;
28459;SDS011;32528;45.712;9.192;2023-03-13T14:35:04;26.83;;;7.20;;
28459;SDS011;32528;45.712;9.192;2023-03-13T14:37:12;20.13;;;7.70;;
28459;SDS011;32528;45.712;9.192;2023-03-13T14:39:42;18.47;;;7.57;;
28459;SDS011;32528;45.712;9.192;2023-03-13T14:41:45;17.90;;;6.78;;
28459;SDS011;32528;45.712;9.192;2023-03-13T14:43:47;33.30;;;7.88;;
28459;SDS011;32528;45.712;9.192;2023-03-13T14:45:48;23.83;;;8.27;;
28459;SDS011;32528;45.712;9.192;2023-03-13T14:47:50;18.85;;;7.78;;
28459;SDS011;32528;45.712;9.192;2023-03-13T14:50:02;18.08;;;7.35;;
28459;SDS011;32528;45.712;9.192;2023-03-13T14:52:23;15.32;;;7.22;;
28459;SDS011;32528;45.712;9.192;2023-03-13T14:54:29;14.93;;;7.25;;